Time;durP1;ratioP1;P1;durP2;ratioP2;P2;SDS_P1;SDS_P2;PMS_P1;PMS_P2;Temp;Humidity;BMP_temperature;BMP_pressure;BME280_temperature;BME280_humidity;BME280_pressure;Samples;Min_cycle;Max_cycle;Signal;HPM_P1;HPM_P2
2021/06/24 00:00:54;;;;;;;10.75;3.15;;;23.10;99.90;;;;;;4172521;28;20113;-66
2021/06/24 00:02:55;;;;;;;12.68;3.25;;;23.00;99.90;;;;;;4173213;28;20075;-61
2021/06/24 00:04:56;;;;;;;13.27;3.72;;;23.00;99.90;;;;;;4172875;28;20037;-63
2021/06/24 00:06:57;;;;;;;15.75;4.57;;;22.90;99.90;;;;;;4172719;28;20110;-61
2021/06/24 00:08:59;;;;;;;9.23;3.80;;;22.90;99.90;;;;;;4172698;28;20057;-62
2021/06/24 00:11:02;;;;;;;7.20;2.97;;;22.90;99.90;;;;;;4172573;28;20033;-60
2021/06/24 00:13:03;;;;;;;13.05;4.00;;;22.90;99.90;;;;;;4172623;28;20114;-61
2021/06/24 00:15:05;;;;;;;9.70;3.63;;;22.90;99.90;;;;;;4172331;28;20033;-61
2021/06/24 00:17:06;;;;;;;14.75;3.47;;;22.80;99.90;;;;;;4173117;28;20049;-61
2021/06/24 00:19:08;;;;;;;11.95;3.58;;;22.80;99.90;;;;;;4172114;28;20051;-61
2021/06/24 00:21:09;;;;;;;6.85;3.20;;;22.80;99.90;;;;;;4173149;28;20088;-59
2021/06/24 00:23:10;;;;;;;9.90;3.28;;;22.80;99.90;;;;;;4171906;28;20025;-61
2021/06/24 00:25:12;;;;;;;5.20;2.90;;;22.70;99.90;;;;;;4173115;28;20036;-60
2021/06/24 00:27:13;;;;;;;10.70;4.10;;;22.70;99.90;;;;;;4171882;28;20485;-61
2021/06/24 00:29:14;;;;;;;11.65;3.75;;;22.70;99.90;;;;;;4173094;28;20543;-61
2021/06/24 00:31:16;;;;;;;13.48;3.95;;;22.70;99.90;;;;;;4172126;28;20025;-61
2021/06/24 00:33:17;;;;;;;10.75;3.53;;;22.70;99.90;;;;;;4172915;28;20087;-63
2021/06/24 00:35:19;;;;;;;9.32;2.83;;;22.70;99.90;;;;;;4172107;28;20033;-61
2021/06/24 00:37:20;;;;;;;11.23;3.05;;;22.70;99.90;;;;;;4172948;28;20114;-62
2021/06/24 00:39:21;;;;;;;8.02;3.60;;;22.70;99.90;;;;;;4172839;28;20045;-64
2021/06/24 00:41:22;;;;;;;9.77;2.97;;;22.70;99.90;;;;;;4172310;28;20091;-62
2021/06/24 00:43:25;;;;;;;13.27;4.03;;;22.70;99.90;;;;;;4172842;28;20032;-64
2021/06/24 00:45:27;;;;;;;11.52;3.53;;;22.70;99.90;;;;;;4172289;28;20791;-60
2021/06/24 00:47:28;;;;;;;9.05;2.88;;;22.60;99.90;;;;;;4172846;28;20029;-61
2021/06/24 00:49:29;;;;;;;8.32;2.65;;;22.60;99.90;;;;;;4171799;28;20025;-60
2021/06/24 00:51:31;;;;;;;10.32;3.17;;;22.60;99.90;;;;;;4172699;28;20041;-60
2021/06/24 00:53:32;;;;;;;12.00;3.65;;;22.50;99.90;;;;;;4171779;28;20044;-58
2021/06/24 00:55:40;;;;;;;10.10;3.42;;;22.50;99.90;;;;;;4173046;28;20362;-60
2021/06/24 00:57:41;;;;;;;9.02;2.92;;;22.50;99.90;;;;;;4171862;28;20021;-61
2021/06/24 00:59:43;;;;;;;10.90;3.17;;;22.50;99.90;;;;;;4173300;28;20041;-61
2021/06/24 01:01:44;;;;;;;9.85;3.08;;;22.40;99.90;;;;;;4171882;28;20025;-57
2021/06/24 01:03:45;;;;;;;12.70;3.28;;;22.40;99.90;;;;;;4172815;28;20025;-61
2021/06/24 01:05:47;;;;;;;11.02;4.03;;;22.40;99.90;;;;;;4171794;28;20159;-62
2021/06/24 01:07:48;;;;;;;8.23;3.22;;;22.40;99.90;;;;;;4172556;28;20435;-61
2021/06/24 01:09:50;;;;;;;8.93;3.33;;;22.40;99.90;;;;;;4172154;28;20048;-61
2021/06/24 01:11:53;;;;;;;13.27;2.97;;;22.30;99.90;;;;;;4171929;28;20040;-59
2021/06/24 01:13:54;;;;;;;12.35;2.95;;;22.30;99.90;;;;;;4172174;28;20083;-60
2021/06/24 01:15:56;;;;;;;10.15;3.17;;;22.20;99.90;;;;;;4172061;28;20091;-61
2021/06/24 01:17:59;;;;;;;14.30;3.42;;;22.20;99.90;;;;;;4172071;28;20083;-61
2021/06/24 01:20:00;;;;;;;7.03;2.65;;;22.20;99.90;;;;;;4171809;28;20090;-62
2021/06/24 01:22:01;;;;;;;12.50;4.13;;;22.20;99.90;;;;;;4172918;28;20040;-61
2021/06/24 01:24:03;;;;;;;10.25;3.40;;;22.20;99.90;;;;;;4174153;28;20037;-60
2021/06/24 01:26:05;;;;;;;9.32;3.47;;;22.20;99.90;;;;;;4175860;28;20086;-60
2021/06/24 01:28:10;;;;;;;6.72;2.90;;;22.10;99.90;;;;;;4174407;28;20045;-60
2021/06/24 01:30:12;;;;;;;9.50;4.22;;;22.10;99.90;;;;;;4174890;28;20047;-60
2021/06/24 01:32:13;;;;;;;16.42;3.67;;;22.00;99.90;;;;;;4174481;28;20555;-61
2021/06/24 01:34:14;;;;;;;8.35;2.75;;;22.00;99.90;;;;;;4175776;28;20086;-61
2021/06/24 01:36:15;;;;;;;7.40;2.90;;;22.00;99.90;;;;;;4174454;28;21070;-61
2021/06/24 01:38:17;;;;;;;8.52;3.13;;;22.10;99.90;;;;;;4175579;28;20045;-61
2021/06/24 01:40:19;;;;;;;15.70;3.95;;;22.00;99.90;;;;;;4174589;28;20036;-59
2021/06/24 01:45:20;;;;;;;11.88;3.30;;;22.10;99.90;;;;;;4174207;28;20079;-62
2021/06/24 01:47:21;;;;;;;10.75;3.13;;;22.00;99.90;;;;;;4175651;28;20021;-61
2021/06/24 01:49:22;;;;;;;11.38;3.10;;;22.00;99.90;;;;;;4173942;28;20554;-61
2021/06/24 01:51:24;;;;;;;6.28;2.90;;;22.00;99.90;;;;;;4175366;28;20515;-60
2021/06/24 01:53:26;;;;;;;11.98;3.17;;;22.00;99.90;;;;;;4174297;28;20049;-60
2021/06/24 01:55:34;;;;;;;7.68;2.53;;;21.90;99.90;;;;;;4175454;28;20539;-61
2021/06/24 01:57:36;;;;;;;7.72;3.25;;;21.90;99.90;;;;;;4174793;28;20037;-60
2021/06/24 01:59:37;;;;;;;14.43;2.88;;;21.90;99.90;;;;;;4176348;28;20045;-62
2021/06/24 02:01:38;;;;;;;12.23;3.35;;;21.80;99.90;;;;;;4173022;28;20037;-60
2021/06/24 02:03:39;;;;;;;12.88;3.72;;;21.80;99.90;;;;;;4174752;28;20071;-65
2021/06/24 02:05:42;;;;;;;11.40;3.58;;;21.80;99.90;;;;;;4174484;28;20067;-61
2021/06/24 02:07:43;;;;;;;8.55;2.50;;;21.80;99.90;;;;;;4174356;28;20489;-59
2021/06/24 02:09:44;;;;;;;9.95;2.72;;;21.80;99.90;;;;;;4174562;28;20053;-62
2021/06/24 02:11:45;;;;;;;8.77;2.60;;;21.80;99.90;;;;;;4173953;28;20029;-60
2021/06/24 02:13:47;;;;;;;7.32;2.38;;;21.80;99.90;;;;;;4175399;28;20099;-61
2021/06/24 02:15:48;;;;;;;13.60;2.97;;;21.80;99.90;;;;;;4174202;28;20064;-62
2021/06/24 02:17:49;;;;;;;7.78;2.92;;;21.80;99.90;;;;;;4175362;28;20037;-61
2021/06/24 02:19:54;;;;;;;12.20;2.67;;;21.70;99.90;;;;;;4174459;28;20287;-60
2021/06/24 02:21:58;;;;;;;19.33;3.85;;;21.70;99.90;;;;;;4174927;28;20045;-61
2021/06/24 02:23:59;;;;;;;13.20;3.53;;;21.70;99.90;;;;;;4173484;28;20021;-61
2021/06/24 02:26:00;;;;;;;12.63;3.65;;;21.60;99.90;;;;;;4174308;28;20102;-60
2021/06/24 02:28:02;;;;;;;15.98;3.85;;;21.60;99.90;;;;;;4169613;28;20079;-60
2021/06/24 02:30:06;;;;;;;16.17;4.43;;;21.50;99.90;;;;;;4175074;28;20865;-62
2021/06/24 02:32:07;;;;;;;17.92;4.78;;;21.40;99.90;;;;;;4174092;28;20485;-61
2021/06/24 02:34:09;;;;;;;12.73;5.90;;;21.20;99.90;;;;;;4172222;28;20053;-61
2021/06/24 02:36:11;;;;;;;12.02;5.43;;;21.10;99.90;;;;;;4174174;28;20415;-61
2021/06/24 02:38:12;;;;;;;18.25;4.82;;;20.90;99.90;;;;;;4172116;28;20029;-61
2021/06/24 02:40:15;;;;;;;8.00;4.80;;;20.70;99.90;;;;;;4174317;28;20060;-60
2021/06/24 02:42:17;;;;;;;15.00;4.85;;;20.60;99.90;;;;;;4173149;28;20056;-60
2021/06/24 02:44:18;;;;;;;16.77;5.25;;;20.60;99.90;;;;;;4174785;28;20040;-60
2021/06/24 02:46:19;;;;;;;14.82;5.28;;;20.60;99.90;;;;;;4173297;28;20086;-62
2021/06/24 02:48:20;;;;;;;18.27;5.75;;;20.60;99.90;;;;;;4174346;28;20075;-60
2021/06/24 02:50:22;;;;;;;15.02;5.45;;;20.60;99.90;;;;;;4172862;28;20033;-61
2021/06/24 02:52:23;;;;;;;21.38;6.55;;;20.60;99.90;;;;;;4174301;28;20033;-60
2021/06/24 02:54:24;;;;;;;11.23;4.93;;;20.70;99.90;;;;;;4172965;28;20029;-60
2021/06/24 02:56:26;;;;;;;12.65;5.10;;;20.80;99.90;;;;;;4174526;28;20045;-60
2021/06/24 02:58:28;;;;;;;19.90;6.22;;;20.90;99.90;;;;;;4172854;28;20455;-62
2021/06/24 03:00:29;;;;;;;11.65;5.07;;;20.90;99.90;;;;;;4174439;28;20029;-60
2021/06/24 03:02:30;;;;;;;11.32;4.80;;;21.00;99.90;;;;;;4173120;28;20037;-56
2021/06/24 03:04:32;;;;;;;20.30;5.78;;;21.20;99.90;;;;;;4174456;28;20033;-61
2021/06/24 03:06:34;;;;;;;18.65;5.82;;;21.30;99.90;;;;;;4173223;28;20037;-61
2021/06/24 03:08:35;;;;;;;11.15;4.07;;;21.40;99.90;;;;;;4173159;28;20033;-61
2021/06/24 03:10:36;;;;;;;12.60;4.53;;;21.50;99.90;;;;;;4173441;28;20044;-60
2021/06/24 03:12:37;;;;;;;20.05;5.20;;;21.60;99.90;;;;;;4173162;28;20102;-60
2021/06/24 03:14:39;;;;;;;8.13;3.90;;;21.70;99.90;;;;;;4173776;28;20365;-60
2021/06/24 03:16:41;;;;;;;11.40;4.15;;;21.90;99.90;;;;;;4173000;28;20091;-61
2021/06/24 03:18:45;;;;;;;15.70;4.30;;;22.20;99.90;;;;;;4174204;28;20045;-60
2021/06/24 03:20:47;;;;;;;11.73;4.25;;;22.30;99.90;;;;;;4173342;28;20048;-60
2021/06/24 03:22:48;;;;;;;9.38;4.32;;;22.60;99.90;;;;;;4174024;28;20079;-62
2021/06/24 03:24:50;;;;;;;12.77;3.95;;;22.90;99.90;;;;;;4172694;28;20032;-63
2021/06/24 03:26:51;;;;;;;15.70;4.88;;;23.20;99.90;;;;;;4174003;28;20115;-59
2021/06/24 03:28:54;;;;;;;19.85;5.57;;;23.60;99.90;;;;;;4172652;28;20025;-63
2021/06/24 03:30:55;;;;;;;16.05;4.65;;;23.90;99.90;;;;;;4174279;28;20045;-61
2021/06/24 03:32:56;;;;;;;19.70;4.55;;;24.10;99.90;;;;;;4172118;28;20025;-61
2021/06/24 03:34:57;;;;;;;17.85;5.35;;;24.20;99.90;;;;;;4173710;28;20045;-61
2021/06/24 03:36:59;;;;;;;12.02;4.75;;;24.40;99.90;;;;;;4172669;28;20428;-60
2021/06/24 03:39:00;;;;;;;21.73;8.23;;;24.40;99.90;;;;;;4173432;28;20045;-62
2021/06/24 03:41:02;;;;;;;17.60;9.50;;;24.50;99.90;;;;;;4173552;28;20170;-61
2021/06/24 03:43:03;;;;;;;20.00;13.10;;;24.80;99.90;;;;;;4172363;28;20025;-64
2021/06/24 03:45:05;;;;;;;20.38;9.02;;;25.20;99.90;;;;;;4173112;28;20075;-63
2021/06/24 03:47:06;;;;;;;17.70;5.75;;;25.70;99.90;;;;;;4172687;28;20105;-62
2021/06/24 03:49:09;;;;;;;16.55;5.38;;;25.80;99.90;;;;;;4173679;28;20106;-61
2021/06/24 03:51:10;;;;;;;15.40;4.20;;;25.80;99.90;;;;;;4171901;28;20158;-62
2021/06/24 03:53:11;;;;;;;16.33;4.82;;;25.70;99.90;;;;;;4172967;28;20024;-61
2021/06/24 03:55:16;;;;;;;15.35;5.07;;;26.00;99.90;;;;;;4171990;28;20032;-61
2021/06/24 03:57:17;;;;;;;19.70;5.63;;;26.30;99.90;;;;;;4173524;28;20025;-62
2021/06/24 03:59:18;;;;;;;17.05;5.38;;;26.50;99.90;;;;;;4172267;28;20083;-62
2021/06/24 04:01:19;;;;;;;14.30;4.32;;;26.70;99.90;;;;;;4173187;28;20110;-68
2021/06/24 04:03:21;;;;;;;21.85;5.32;;;26.40;99.90;;;;;;4171871;28;20033;-61
2021/06/24 04:05:22;;;;;;;13.65;4.63;;;26.10;99.90;;;;;;4188032;28;20159;-61
2021/06/24 04:07:23;;;;;;;18.83;5.43;;;26.20;99.90;;;;;;4171884;28;20041;-61
2021/06/24 04:09:24;;;;;;;15.90;4.70;;;26.20;99.90;;;;;;4172620;28;21394;-62
2021/06/24 04:11:25;;;;;;;16.05;5.03;;;26.30;99.90;;;;;;4172244;28;20506;-62
2021/06/24 04:13:27;;;;;;;19.90;5.57;;;26.20;99.90;;;;;;4172393;28;20041;-63
2021/06/24 04:15:29;;;;;;;24.00;4.50;;;26.40;99.90;;;;;;4172149;28;20025;-64
2021/06/24 04:17:30;;;;;;;23.20;5.00;;;27.20;99.20;;;;;;4171858;28;20079;-63
2021/06/24 04:19:32;;;;;;;13.25;5.25;;;28.00;98.60;;;;;;4172948;28;20580;-62
2021/06/24 04:21:33;;;;;;;15.40;4.50;;;28.30;97.30;;;;;;4172093;28;20102;-61
2021/06/24 04:23:34;;;;;;;16.77;4.75;;;28.70;96.90;;;;;;4173133;28;20075;-61
2021/06/24 04:25:37;;;;;;;15.13;4.97;;;29.20;96.10;;;;;;4172017;28;20043;-61
2021/06/24 04:27:38;;;;;;;16.13;4.72;;;29.60;95.40;;;;;;4173574;28;20102;-59
2021/06/24 04:29:39;;;;;;;15.75;4.53;;;30.10;94.70;;;;;;4171850;28;20088;-62
2021/06/24 04:31:40;;;;;;;19.70;4.90;;;30.60;93.90;;;;;;4172645;28;20448;-62
2021/06/24 04:33:42;;;;;;;12.77;4.05;;;30.90;93.20;;;;;;4170983;28;20033;-60
2021/06/24 04:35:43;;;;;;;18.58;4.38;;;31.00;92.60;;;;;;4172582;28;20036;-64
2021/06/24 04:37:44;;;;;;;15.95;4.80;;;31.30;92.10;;;;;;4171537;28;20021;-61
2021/06/24 04:39:45;;;;;;;14.45;4.82;;;31.30;91.50;;;;;;4172498;28;20094;-60
2021/06/24 04:41:46;;;;;;;22.80;5.38;;;31.50;91.10;;;;;;4171901;28;20029;-60
2021/06/24 04:43:48;;;;;;;19.42;3.88;;;31.60;90.60;;;;;;4171144;28;20095;-59
2021/06/24 04:45:49;;;;;;;14.07;3.53;;;31.90;90.20;;;;;;4172186;28;20028;-62
2021/06/24 04:47:51;;;;;;;22.52;5.43;;;32.30;89.50;;;;;;4171540;28;20440;-59
2021/06/24 04:49:53;;;;;;;16.00;4.78;;;32.40;88.10;;;;;;4172045;28;20029;-61
2021/06/24 04:51:54;;;;;;;11.75;4.30;;;32.50;87.30;;;;;;4171147;28;20033;-60
2021/06/24 04:53:55;;;;;;;13.18;4.30;;;32.50;86.40;;;;;;4171105;28;20531;-63
2021/06/24 04:55:56;;;;;;;15.27;4.32;;;32.30;85.90;;;;;;4171426;28;20059;-59
2021/06/24 04:57:57;;;;;;;16.60;4.32;;;32.30;85.90;;;;;;4173710;28;20040;-60
2021/06/24 04:59:59;;;;;;;17.65;4.38;;;32.30;85.00;;;;;;4174255;28;20408;-60
2021/06/24 05:02:00;;;;;;;12.73;4.38;;;32.60;84.30;;;;;;4175507;28;20098;-59
2021/06/24 05:04:01;;;;;;;25.88;6.82;;;32.90;83.60;;;;;;4174759;28;20044;-59
2021/06/24 05:06:05;;;;;;;15.43;5.15;;;33.30;82.20;;;;;;4175425;28;20090;-61
2021/06/24 05:08:15;;;;;;;18.25;4.75;;;32.60;81.10;;;;;;4172838;28;20028;-61
2021/06/24 05:10:17;;;;;;;15.43;4.47;;;32.50;80.80;;;;;;4174957;28;20463;-61
2021/06/24 05:12:18;;;;;;;16.98;4.57;;;32.50;80.50;;;;;;4173642;28;20090;-62
2021/06/24 05:14:20;;;;;;;15.60;4.00;;;32.20;80.30;;;;;;4175164;28;20463;-60
2021/06/24 05:16:21;;;;;;;14.18;4.32;;;31.70;80.60;;;;;;4174593;28;20029;-61
2021/06/24 05:18:23;;;;;;;12.60;3.88;;;31.10;80.90;;;;;;4174683;28;20095;-60
2021/06/24 05:20:24;;;;;;;13.63;3.88;;;31.10;81.40;;;;;;4174691;28;20044;-62
2021/06/24 05:22:26;;;;;;;11.35;3.47;;;31.60;80.80;;;;;;4173854;28;20037;-61
2021/06/24 05:24:27;;;;;;;13.35;3.83;;;32.20;79.60;;;;;;4174496;28;20545;-60
2021/06/24 05:26:28;;;;;;;11.05;4.30;;;32.80;78.30;;;;;;4174138;28;20032;-61
2021/06/24 05:28:30;;;;;;;15.35;3.92;;;33.30;77.00;;;;;;4175020;28;20087;-61
2021/06/24 05:30:31;;;;;;;10.70;3.35;;;33.70;75.50;;;;;;4174399;28;20094;-60
2021/06/24 05:32:33;;;;;;;10.80;3.70;;;33.70;74.60;;;;;;4175631;28;20032;-61
2021/06/24 05:34:34;;;;;;;9.15;3.60;;;33.60;74.20;;;;;;4174753;28;20599;-63
2021/06/24 05:36:36;;;;;;;17.30;3.55;;;34.00;73.90;;;;;;4175450;28;20045;-61
2021/06/24 05:38:38;;;;;;;10.75;3.58;;;34.10;73.80;;;;;;4173904;28;20099;-60
2021/06/24 05:40:41;;;;;;;12.10;3.53;;;33.70;72.90;;;;;;4182331;28;20017;-60
2021/06/24 05:42:42;;;;;;;9.88;3.10;;;33.10;73.10;;;;;;4173701;28;20041;-60
2021/06/24 05:44:43;;;;;;;10.77;3.53;;;32.00;73.90;;;;;;4174555;28;20037;-60
2021/06/24 05:46:45;;;;;;;10.82;3.17;;;31.30;75.30;;;;;;4174263;28;20032;-63
2021/06/24 05:48:51;;;;;;;11.90;3.35;;;31.10;75.90;;;;;;4174536;28;20049;-60
2021/06/24 05:50:52;;;;;;;20.70;3.03;;;31.50;76.00;;;;;;4174239;28;20021;-60
2021/06/24 05:52:54;;;;;;;11.05;3.42;;;31.90;75.40;;;;;;4171244;28;20142;-69
2021/06/24 05:54:55;;;;;;;13.77;3.67;;;31.90;74.80;;;;;;4174472;28;20071;-63
2021/06/24 05:56:56;;;;;;;14.95;3.58;;;31.30;75.40;;;;;;4174232;28;20099;-62
2021/06/24 05:58:57;;;;;;;16.25;4.65;;;31.10;75.80;;;;;;4174738;28;20110;-62
2021/06/24 06:00:59;;;;;;;15.48;3.60;;;31.10;76.30;;;;;;4173056;28;20540;-59
2021/06/24 06:03:01;;;;;;;22.55;4.65;;;31.00;76.00;;;;;;4174838;28;20421;-65
2021/06/24 06:05:02;;;;;;;21.65;4.60;;;31.30;76.80;;;;;;4173404;28;20469;-68
2021/06/24 06:07:03;;;;;;;29.05;5.07;;;31.80;77.00;;;;;;4174251;28;20554;-63
2021/06/24 06:09:05;;;;;;;30.45;5.97;;;32.10;76.70;;;;;;4172692;28;20045;-62
2021/06/24 06:11:06;;;;;;;26.45;5.43;;;32.00;76.50;;;;;;4173276;28;20087;-66
2021/06/24 06:13:08;;;;;;;25.33;6.05;;;31.80;76.70;;;;;;4172688;28;20029;-60
2021/06/24 06:15:10;;;;;;;16.77;4.80;;;31.70;77.20;;;;;;4173886;28;20452;-60
2021/06/24 06:17:11;;;;;;;31.75;6.25;;;31.90;76.80;;;;;;4172902;28;20033;-60
2021/06/24 06:19:13;;;;;;;23.25;6.13;;;31.60;77.00;;;;;;4173991;28;20029;-59
2021/06/24 06:21:15;;;;;;;27.85;6.60;;;31.40;77.80;;;;;;4173257;28;20551;-60
2021/06/24 06:23:18;;;;;;;33.92;7.22;;;31.00;78.90;;;;;;4173725;28;20049;-59
2021/06/24 06:25:19;;;;;;;17.30;6.45;;;30.70;79.50;;;;;;4174101;28;20025;-60
2021/06/24 06:27:20;;;;;;;22.75;6.65;;;30.60;80.30;;;;;;4173578;28;20094;-62
2021/06/24 06:29:22;;;;;;;24.38;6.53;;;30.30;80.40;;;;;;4174251;28;20049;-60
2021/06/24 06:31:24;;;;;;;19.33;5.80;;;30.20;81.00;;;;;;4173458;28;20041;-62
2021/06/24 06:33:27;;;;;;;27.85;6.90;;;30.00;81.40;;;;;;4173728;28;20087;-60
2021/06/24 06:35:29;;;;;;;32.88;6.38;;;29.90;81.60;;;;;;4173412;28;20114;-61
2021/06/24 06:37:31;;;;;;;31.05;6.22;;;30.00;81.90;;;;;;4174803;28;20083;-61
2021/06/24 06:39:32;;;;;;;21.02;6.07;;;30.30;82.30;;;;;;4183465;28;20037;-61
2021/06/24 06:41:33;;;;;;;24.00;5.70;;;30.50;81.80;;;;;;4174113;28;20079;-61
2021/06/24 06:43:35;;;;;;;20.85;5.32;;;30.40;81.50;;;;;;4171850;28;20044;-64
2021/06/24 06:45:36;;;;;;;18.27;6.55;;;30.50;81.80;;;;;;4174458;28;20130;-66
2021/06/24 06:47:37;;;;;;;22.70;5.30;;;30.40;81.40;;;;;;4173467;28;20025;-66
2021/06/24 06:49:38;;;;;;;27.85;6.70;;;30.30;81.50;;;;;;4173638;28;20417;-67
2021/06/24 06:51:39;;;;;;;25.05;6.93;;;30.20;81.70;;;;;;4173247;28;20095;-69
2021/06/24 06:53:40;;;;;;;17.63;5.55;;;29.90;82.20;;;;;;4173314;28;20421;-63
2021/06/24 06:55:42;;;;;;;22.98;6.30;;;29.70;82.30;;;;;;4173630;28;20485;-64
2021/06/24 06:57:43;;;;;;;17.90;6.10;;;29.70;82.60;;;;;;4172707;28;20097;-70
2021/06/24 06:59:44;;;;;;;24.27;6.45;;;29.70;82.70;;;;;;4173927;28;20082;-63
2021/06/24 07:01:45;;;;;;;24.38;5.45;;;29.60;83.10;;;;;;4173208;28;20032;-66
2021/06/24 07:03:46;;;;;;;15.65;5.63;;;29.70;83.80;;;;;;4173445;28;20091;-62
2021/06/24 07:05:48;;;;;;;20.05;6.07;;;29.70;83.30;;;;;;4172502;28;20566;-64
2021/06/24 07:07:49;;;;;;;24.40;5.85;;;29.90;83.40;;;;;;4172637;28;20596;-63
2021/06/24 07:09:50;;;;;;;14.68;4.97;;;29.60;83.90;;;;;;4172654;28;20099;-66
2021/06/24 07:11:51;;;;;;;19.45;5.80;;;29.30;85.00;;;;;;4173387;28;20024;-60
2021/06/24 07:13:52;;;;;;;18.05;5.70;;;29.20;86.00;;;;;;4172511;28;20029;-59
2021/06/24 07:15:56;;;;;;;17.15;5.22;;;29.30;85.70;;;;;;4173734;28;20045;-60
2021/06/24 07:17:57;;;;;;;17.23;5.80;;;29.40;86.00;;;;;;4172788;28;20474;-62
2021/06/24 07:19:59;;;;;;;20.98;5.13;;;29.30;86.40;;;;;;4173407;28;20104;-59
2021/06/24 07:22:00;;;;;;;14.60;5.53;;;29.30;86.30;;;;;;4173174;28;20041;-64
2021/06/24 07:24:01;;;;;;;24.67;5.63;;;29.40;86.00;;;;;;4173369;28;20125;-65
2021/06/24 07:26:02;;;;;;;18.17;5.10;;;29.70;85.60;;;;;;4172703;28;20025;-66
2021/06/24 07:28:04;;;;;;;29.23;5.30;;;30.00;85.40;;;;;;4171769;28;20033;-65
2021/06/24 07:30:06;;;;;;;19.05;5.50;;;30.10;85.20;;;;;;4173316;28;20028;-63
2021/06/24 07:32:07;;;;;;;17.67;5.18;;;30.30;85.00;;;;;;4172441;28;20442;-67
2021/06/24 07:34:08;;;;;;;21.42;6.60;;;30.30;84.90;;;;;;4173980;28;20040;-63
2021/06/24 07:36:10;;;;;;;31.17;6.28;;;30.20;85.20;;;;;;4171800;28;20546;-59
2021/06/24 07:38:11;;;;;;;12.13;5.00;;;30.30;85.20;;;;;;4172852;28;20094;-61
2021/06/24 07:40:13;;;;;;;19.70;5.65;;;30.40;85.10;;;;;;4171430;28;20098;-64
2021/06/24 07:42:16;;;;;;;18.27;5.38;;;30.50;84.90;;;;;;4173587;28;20033;-61
2021/06/24 07:44:17;;;;;;;18.55;5.60;;;30.20;85.10;;;;;;4172104;28;20098;-62
2021/06/24 07:46:19;;;;;;;17.92;5.70;;;30.30;85.40;;;;;;4173171;28;20106;-61
2021/06/24 07:48:20;;;;;;;17.35;4.75;;;30.50;85.10;;;;;;4172064;28;20362;-62
2021/06/24 07:50:22;;;;;;;16.33;5.68;;;30.90;84.60;;;;;;4173085;28;20456;-61
2021/06/24 07:52:23;;;;;;;19.23;5.30;;;31.10;83.90;;;;;;4170716;28;20037;-61
2021/06/24 07:54:24;;;;;;;15.60;4.78;;;31.30;83.80;;;;;;4172789;28;20053;-65
2021/06/24 07:56:25;;;;;;;17.38;5.90;;;31.70;83.10;;;;;;4172422;28;20550;-65
2021/06/24 07:58:26;;;;;;;12.77;4.53;;;31.90;82.20;;;;;;4172574;28;20025;-62
2021/06/24 08:00:28;;;;;;;23.88;5.10;;;31.50;82.30;;;;;;4172747;28;20075;-64
2021/06/24 08:02:29;;;;;;;18.75;5.53;;;31.50;82.10;;;;;;4172498;28;20074;-64
2021/06/24 08:04:30;;;;;;;13.55;5.38;;;31.50;82.20;;;;;;4173004;28;20087;-62
2021/06/24 08:06:32;;;;;;;15.82;5.57;;;31.50;82.50;;;;;;4171787;28;20037;-62
2021/06/24 08:08:33;;;;;;;24.58;5.20;;;31.40;82.50;;;;;;4172808;28;20463;-64
2021/06/24 08:10:34;;;;;;;19.02;5.07;;;31.20;82.60;;;;;;4171705;28;20107;-63
2021/06/24 08:12:35;;;;;;;10.27;4.30;;;31.10;82.50;;;;;;4172701;28;20106;-61
2021/06/24 08:14:36;;;;;;;16.42;5.00;;;31.20;82.40;;;;;;4171470;28;20090;-63
2021/06/24 08:16:37;;;;;;;13.63;4.53;;;31.30;82.30;;;;;;4172968;28;20082;-64
2021/06/24 08:18:39;;;;;;;15.57;4.82;;;31.40;82.20;;;;;;4171825;28;20102;-61
2021/06/24 08:20:40;;;;;;;16.55;5.18;;;31.50;82.00;;;;;;4173030;28;20028;-62
2021/06/24 08:22:42;;;;;;;16.40;5.75;;;31.60;81.70;;;;;;4171813;28;20029;-64
2021/06/24 08:24:43;;;;;;;11.18;4.28;;;31.70;81.90;;;;;;4172646;28;20067;-64
2021/06/24 08:26:44;;;;;;;16.73;4.95;;;31.80;81.70;;;;;;4171768;28;20075;-63
2021/06/24 08:28:45;;;;;;;14.82;4.95;;;31.80;81.50;;;;;;4172577;28;20045;-66
2021/06/24 08:30:48;;;;;;;22.70;4.65;;;32.10;81.60;;;;;;4171747;28;20127;-64
2021/06/24 08:32:49;;;;;;;12.30;4.53;;;32.20;80.90;;;;;;4171122;28;20059;-66
2021/06/24 08:34:51;;;;;;;15.70;4.47;;;32.10;80.60;;;;;;4170709;28;20548;-62
2021/06/24 08:36:52;;;;;;;14.95;4.50;;;31.90;80.80;;;;;;4171643;28;20049;-65
2021/06/24 08:38:53;;;;;;;12.88;4.15;;;31.80;80.70;;;;;;4172408;28;20443;-62
2021/06/24 08:40:58;;;;;;;18.35;4.53;;;31.90;80.70;;;;;;4170343;28;20036;-63
2021/06/24 08:43:00;;;;;;;14.13;4.18;;;32.20;80.90;;;;;;4172454;28;20094;-63
2021/06/24 08:45:03;;;;;;;15.80;4.25;;;32.50;79.80;;;;;;4171512;28;20498;-63
2021/06/24 08:47:06;;;;;;;11.77;4.30;;;32.40;78.70;;;;;;4172462;28;20485;-64
2021/06/24 08:49:08;;;;;;;19.00;4.00;;;32.40;78.70;;;;;;4171400;28;20029;-62
2021/06/24 08:51:09;;;;;;;14.43;3.78;;;32.40;78.10;;;;;;4171704;28;20033;-62
2021/06/24 08:53:11;;;;;;;17.55;4.93;;;32.30;77.80;;;;;;4171453;28;20474;-65
2021/06/24 08:55:12;;;;;;;10.35;4.35;;;32.20;77.50;;;;;;4172680;28;20963;-66
2021/06/24 08:57:15;;;;;;;12.73;3.88;;;32.00;77.80;;;;;;4170842;28;20461;-60
2021/06/24 08:59:16;;;;;;;17.02;4.00;;;32.00;77.50;;;;;;4172256;28;20025;-65
2021/06/24 09:01:18;;;;;;;9.93;4.35;;;32.10;78.20;;;;;;4172347;28;20110;-62
2021/06/24 09:03:22;;;;;;;13.02;4.43;;;32.30;77.40;;;;;;4172214;28;20075;-66
2021/06/24 09:05:53;;;;;;;16.63;4.40;;;32.40;77.30;;;;;;4171434;28;20087;-67
2021/06/24 09:07:55;;;;;;;13.73;4.00;;;32.40;76.70;;;;;;4172719;28;20045;-65
2021/06/24 09:09:58;;;;;;;10.43;4.22;;;32.40;76.90;;;;;;4171288;28;20045;-64
2021/06/24 09:12:05;;;;;;;13.70;5.05;;;32.10;76.90;;;;;;4172674;28;20083;-65
2021/06/24 09:14:12;;;;;;;9.90;4.28;;;32.20;76.70;;;;;;4171495;28;20029;-62
2021/06/24 09:16:25;;;;;;;13.25;4.35;;;32.30;76.60;;;;;;4171782;28;20108;-66
2021/06/24 09:18:26;;;;;;;16.23;4.50;;;32.30;76.00;;;;;;4171749;28;20029;-62
2021/06/24 09:20:33;;;;;;;14.30;3.97;;;32.20;76.30;;;;;;4171913;28;20033;-65
2021/06/24 09:22:35;;;;;;;8.50;4.45;;;32.20;76.40;;;;;;4171951;28;20021;-65
2021/06/24 09:24:43;;;;;;;10.65;4.50;;;32.30;76.80;;;;;;4171644;28;20084;-64
2021/06/24 09:26:44;;;;;;;14.93;4.00;;;32.40;76.70;;;;;;4171974;28;20045;-62
2021/06/24 09:28:51;;;;;;;11.05;4.50;;;32.40;76.30;;;;;;4170662;28;20098;-62
2021/06/24 09:30:52;;;;;;;13.25;3.80;;;32.30;76.20;;;;;;4172856;28;20041;-64
2021/06/24 09:32:53;;;;;;;18.02;3.95;;;32.40;76.30;;;;;;4171301;28;20079;-64
2021/06/24 09:34:55;;;;;;;11.55;4.35;;;32.50;76.20;;;;;;4172507;28;20036;-65
2021/06/24 09:36:59;;;;;;;11.02;3.92;;;32.60;75.80;;;;;;4171312;28;20473;-64
2021/06/24 09:39:03;;;;;;;8.77;3.50;;;32.60;75.50;;;;;;4172029;28;20095;-61
2021/06/24 09:41:04;;;;;;;12.77;4.10;;;32.70;75.80;;;;;;4170886;28;20025;-64
2021/06/24 09:43:06;;;;;;;13.90;3.92;;;32.80;76.20;;;;;;4172489;28;20670;-61
2021/06/24 09:45:08;;;;;;;28.33;6.45;;;32.90;76.20;;;;;;4174202;28;20787;-64
2021/06/24 09:47:29;;;;;;;13.52;3.88;;;32.90;76.30;;;;;;4175441;28;20094;-63
2021/06/24 09:49:36;;;;;;;17.25;4.95;;;32.90;76.10;;;;;;4173064;28;20377;-62
2021/06/24 09:51:37;;;;;;;13.15;4.15;;;32.90;75.00;;;;;;4173577;28;20047;-65
2021/06/24 09:53:54;;;;;;;17.33;4.90;;;32.50;75.30;;;;;;4172157;28;20126;-64
2021/06/24 09:55:55;;;;;;;15.25;5.00;;;31.90;76.80;;;;;;4174329;28;20045;-60
2021/06/24 09:58:11;;;;;;;15.05;4.80;;;32.00;77.40;;;;;;4173819;28;20090;-59
2021/06/24 10:00:48;;;;;;;11.73;3.75;;;32.10;76.70;;;;;;4174417;28;20037;-64
2021/06/24 10:03:11;;;;;;;11.52;3.80;;;32.20;76.30;;;;;;4157274;28;20512;-64
2021/06/24 10:05:13;;;;;;;17.40;4.35;;;32.50;75.80;;;;;;4166184;28;20078;-61
2021/06/24 10:07:20;;;;;;;10.27;4.50;;;32.70;75.50;;;;;;4173374;28;20028;-65
2021/06/24 10:09:24;;;;;;;10.48;4.43;;;32.40;74.60;;;;;;4173815;28;20432;-65
2021/06/24 10:11:26;;;;;;;12.55;4.15;;;32.20;74.10;;;;;;4173885;28;20061;-61
2021/06/24 10:13:29;;;;;;;20.65;4.90;;;31.80;75.40;;;;;;4174656;28;20020;-61
2021/06/24 10:15:32;;;;;;;7.90;3.63;;;31.80;76.40;;;;;;4173457;28;20094;-61
2021/06/24 10:17:34;;;;;;;17.80;4.80;;;32.00;75.40;;;;;;4174922;28;20041;-60
2021/06/24 10:19:41;;;;;;;20.40;4.22;;;32.00;75.00;;;;;;4173407;28;20082;-59
2021/06/24 10:21:47;;;;;;;12.80;4.43;;;32.40;75.20;;;;;;4173373;28;20106;-61
2021/06/24 10:24:12;;;;;;;15.30;4.50;;;32.20;75.50;;;;;;4172706;28;20060;-61
2021/06/24 10:26:15;;;;;;;13.15;3.90;;;32.10;75.20;;;;;;4173462;28;20041;-61
2021/06/24 10:28:19;;;;;;;8.65;3.92;;;32.30;75.00;;;;;;4172381;28;20075;-60
2021/06/24 10:30:22;;;;;;;9.25;4.10;;;32.50;74.70;;;;;;4174540;28;20098;-60
2021/06/24 10:32:26;;;;;;;11.43;4.13;;;32.60;73.80;;;;;;4173366;28;20142;-61